Time;durP1;ratioP1;P1;durP2;ratioP2;P2;SDS_P1;SDS_P2;PMS_P1;PMS_P2;Temp;Humidity;BMP_temperature;BMP_pressure;BME280_temperature;BME280_humidity;BME280_pressure;Samples;Min_cycle;Max_cycle;Signal;HPM_P1;HPM_P2
2023/05/18 00:01:25;;;;;;;1.48;0.73;;;;;;;11.57;75.17;99799.66;4879961;29;20140;-63
2023/05/18 00:03:54;;;;;;;;;;;;;;;11.55;75.29;99801.38;4879885;29;20518;-63
2023/05/18 00:06:26;;;;;;;0.40;0.40;;;;;;;11.55;75.41;99798.81;4880128;29;20289;-63
2023/05/18 00:08:55;;;;;;;0.50;0.50;;;;;;;11.59;75.70;99807.34;4879952;29;20136;-63
2023/05/18 00:11:24;;;;;;;1.10;1.02;;;;;;;11.55;75.81;99801.38;4880102;29;20593;-63
2023/05/18 00:13:55;;;;;;;0.50;0.50;;;;;;;11.53;76.07;99803.09;4880210;29;20132;-63
2023/05/18 00:16:24;;;;;;;0.60;0.60;;;;;;;11.52;76.03;99796.25;4879823;29;20124;-63
2023/05/18 00:18:53;;;;;;;0.40;0.40;;;;;;;11.54;76.22;99804.78;4878939;29;20049;-63
2023/05/18 00:21:22;;;;;;;0.45;0.45;;;;;;;11.55;76.08;99809.03;4878740;29;20097;-63
2023/05/18 00:23:51;;;;;;;0.80;0.80;;;;;;;11.55;76.14;99801.38;4880033;29;20049;-62
2023/05/18 00:26:20;;;;;;;1.02;1.00;;;;;;;11.58;76.18;99803.06;4880022;29;20284;-63
2023/05/18 00:28:52;;;;;;;0.70;0.70;;;;;;;11.57;75.94;99798.81;4879976;29;20519;-63
2023/05/18 00:31:22;;;;;;;0.60;0.60;;;;;;;11.57;75.83;99793.69;4878531;29;20046;-63
2023/05/18 00:33:51;;;;;;;0.70;0.70;;;;;;;11.60;75.75;99804.78;4879930;29;20057;-63
2023/05/18 00:36:20;;;;;;;0.63;0.60;;;;;;;11.66;75.71;99801.34;4878488;29;20076;-63
2023/05/18 00:38:49;;;;;;;0.77;0.77;;;;;;;11.67;75.95;99806.44;4879613;29;20045;-64
2023/05/18 00:41:20;;;;;;;1.55;0.50;;;;;;;11.71;75.93;99803.06;4880157;29;20395;-64
2023/05/18 00:43:49;;;;;;;0.30;0.30;;;;;;;11.69;75.85;99804.75;4879829;29;20053;-63
2023/05/18 00:46:18;;;;;;;0.50;0.50;;;;;;;11.68;75.81;99808.19;4878368;29;20518;-63
2023/05/18 00:48:49;;;;;;;0.40;0.40;;;;;;;11.66;75.69;99809.84;4879823;29;20048;-63
2023/05/18 00:51:19;;;;;;;0.50;0.50;;;;;;;11.67;75.81;99811.56;4879552;29;20055;-62
2023/05/18 00:53:50;;;;;;;1.45;1.38;;;;;;;11.56;75.83;99792.88;4878893;29;20376;-63
2023/05/18 00:56:20;;;;;;;0.60;0.60;;;;;;;11.61;76.15;99809.03;4878372;29;20053;-63
2023/05/18 00:58:52;;;;;;;1.23;1.15;;;;;;;11.61;76.06;99811.59;4878382;29;20567;-63
2023/05/18 01:01:28;;;;;;;0.80;0.60;;;;;;;11.59;76.01;99813.28;4878611;29;20503;-63
2023/05/18 01:04:01;;;;;;;1.17;0.73;;;;;;;11.61;76.22;99815.84;4879318;29;20049;-63
2023/05/18 01:06:34;;;;;;;0.35;0.35;;;;;;;11.60;76.16;99814.13;4878458;29;20152;-63
2023/05/18 01:09:07;;;;;;;0.90;0.55;;;;;;;11.60;76.48;99824.38;4879380;29;20049;-63
2023/05/18 01:11:49;;;;;;;0.85;0.82;;;;;;;11.61;76.26;99816.72;4879343;29;20053;-63
2023/05/18 01:14:28;;;;;;;0.60;0.60;;;;;;;11.59;76.14;99820.13;4879375;29;20053;-63
2023/05/18 01:17:09;;;;;;;0.80;0.80;;;;;;;11.63;76.94;99825.22;4881891;29;20060;-63
2023/05/18 01:20:07;;;;;;;1.20;0.85;;;;;;;11.61;76.34;99826.94;4897512;29;20128;-63
2023/05/18 01:23:00;;;;;;;1.15;1.05;;;;;;;11.60;76.25;99820.09;4882749;29;20559;-63
2023/05/18 01:25:35;;;;;;;0.50;0.50;;;;;;;11.59;76.27;99823.50;4882587;29;20049;-60
2023/05/18 01:28:09;;;;;;;0.85;0.85;;;;;;;11.61;76.50;99821.81;4881435;29;20128;-63
2023/05/18 01:30:41;;;;;;;1.15;0.63;;;;;;;11.63;76.41;99824.38;4881447;29;20132;-63
2023/05/18 01:33:12;;;;;;;0.45;0.45;;;;;;;11.65;76.03;99828.63;4882520;29;20132;-63
2023/05/18 01:35:46;;;;;;;0.63;0.63;;;;;;;11.65;75.91;99817.53;4882490;29;20563;-63
2023/05/18 01:38:18;;;;;;;0.40;0.40;;;;;;;11.64;75.96;99820.94;4882421;29;20124;-63
2023/05/18 01:40:57;;;;;;;1.05;0.63;;;;;;;11.63;75.85;99822.66;4882483;29;20085;-63
2023/05/18 01:43:32;;;;;;;0.52;0.50;;;;;;;11.61;76.05;99814.16;4881187;29;20156;-63
2023/05/18 01:46:09;;;;;;;1.10;1.08;;;;;;;11.62;75.94;99823.50;4896761;29;20468;-63
2023/05/18 01:48:48;;;;;;;0.65;0.65;;;;;;;11.58;76.09;99809.03;4882564;29;20045;-63
2023/05/18 01:51:22;;;;;;;0.63;0.63;;;;;;;11.61;75.92;99811.59;4881028;29;20045;-63
2023/05/18 01:53:57;;;;;;;0.55;0.55;;;;;;;11.62;75.99;99812.41;4881093;29;20132;-63
2023/05/18 01:56:29;;;;;;;0.73;0.73;;;;;;;11.68;76.26;99818.44;4882584;29;20440;-63
2023/05/18 01:59:00;;;;;;;1.02;0.80;;;;;;;11.67;76.21;99820.94;4882644;29;20484;-64
2023/05/18 02:01:30;;;;;;;0.40;0.40;;;;;;;11.65;76.29;99813.28;4882096;29;20113;-63
2023/05/18 02:03:59;;;;;;;0.98;0.88;;;;;;;11.65;76.30;99814.97;4880643;29;20052;-63
2023/05/18 02:06:28;;;;;;;1.35;1.20;;;;;;;11.63;76.24;99819.25;4896242;29;20041;-63
2023/05/18 02:08:57;;;;;;;0.50;0.50;;;;;;;11.65;76.22;99818.41;4880787;29;20078;-63
2023/05/18 02:11:26;;;;;;;2.10;1.37;;;;;;;11.65;76.20;99822.66;4881467;29;20069;-63
2023/05/18 02:13:56;;;;;;;1.15;1.05;;;;;;;11.64;76.37;99826.91;4880851;29;20471;-63
2023/05/18 02:16:26;;;;;;;1.60;1.50;;;;;;;11.64;76.40;99821.78;4880548;29;20552;-64
2023/05/18 02:18:55;;;;;;;1.25;1.15;;;;;;;11.62;76.43;99823.50;4881609;29;20048;-63
2023/05/18 02:21:24;;;;;;;1.10;1.00;;;;;;;11.61;76.62;99821.81;4881672;29;20041;-63
2023/05/18 02:23:53;;;;;;;0.50;0.50;;;;;;;11.65;76.59;99828.63;4882361;29;20311;-63
2023/05/18 02:26:22;;;;;;;0.60;0.60;;;;;;;11.61;76.53;99824.38;4896742;29;20161;-63
2023/05/18 02:28:53;;;;;;;1.15;1.05;;;;;;;11.60;76.79;99835.44;4880777;29;20288;-63
2023/05/18 02:31:22;;;;;;;1.17;1.08;;;;;;;11.61;76.69;99837.16;4881813;29;20127;-63
2023/05/18 02:33:53;;;;;;;0.65;0.65;;;;;;;11.62;76.97;99833.72;4881732;29;20075;-63
2023/05/18 02:36:22;;;;;;;0.85;0.82;;;;;;;11.59;76.77;99833.72;4880227;29;20052;-63
2023/05/18 02:38:51;;;;;;;0.40;0.40;;;;;;;11.59;76.83;99822.69;4895658;29;20085;-63
2023/05/18 02:41:20;;;;;;;0.50;0.50;;;;;;;11.62;77.04;99823.50;4896026;29;20040;-63
2023/05/18 02:43:50;;;;;;;0.45;0.45;;;;;;;11.60;77.02;99827.78;4881493;29;20290;-63
2023/05/18 02:46:20;;;;;;;0.50;0.50;;;;;;;11.54;76.98;99812.44;4881144;29;20053;-63
2023/05/18 02:48:49;;;;;;;0.52;0.52;;;;;;;11.61;77.12;99828.63;4880049;29;20531;-63
2023/05/18 02:51:20;;;;;;;1.90;1.17;;;;;;;11.56;77.19;99828.66;4879897;29;20041;-63
2023/05/18 02:53:50;;;;;;;1.05;0.95;;;;;;;11.56;77.41;99833.75;4895776;29;20117;-63
2023/05/18 02:56:20;;;;;;;0.73;0.73;;;;;;;11.54;77.22;99830.31;4881042;29;20049;-63
2023/05/18 02:58:56;;;;;;;0.43;0.43;;;;;;;11.56;77.59;99833.75;4895358;29;20053;-63
2023/05/18 03:01:35;;;;;;;0.35;0.35;;;;;;;11.57;77.51;99830.34;4880886;29;20526;-63
2023/05/18 03:04:05;;;;;;;0.30;0.30;;;;;;;11.58;77.58;99833.75;4895179;29;20057;-64
2023/05/18 03:06:37;;;;;;;2.47;0.70;;;;;;;11.58;77.66;99837.16;4880842;29;20045;-63
2023/05/18 03:09:06;;;;;;;0.45;0.45;;;;;;;11.60;77.77;99840.56;4880803;29;20049;-63
2023/05/18 03:11:41;;;;;;;1.50;1.40;;;;;;;11.60;77.56;99840.56;4881292;29;20456;-63
2023/05/18 03:14:10;;;;;;;1.40;1.13;;;;;;;11.61;77.57;99842.28;4880634;29;20052;-63
2023/05/18 03:16:39;;;;;;;0.47;0.47;;;;;;;11.61;77.46;99838.84;4879478;29;20080;-63
2023/05/18 03:19:14;;;;;;;1.33;1.23;;;;;;;11.62;77.60;99849.06;4880763;29;20052;-63
2023/05/18 03:21:48;;;;;;;0.30;0.30;;;;;;;11.61;77.36;99846.53;4879518;29;20056;-63
2023/05/18 03:24:19;;;;;;;2.13;1.00;;;;;;;11.59;77.52;99849.06;4880503;29;20053;-63
2023/05/18 03:26:52;;;;;;;0.80;0.80;;;;;;;11.61;77.67;99852.50;4880492;29;20069;-63
2023/05/18 03:29:23;;;;;;;0.68;0.68;;;;;;;11.60;77.68;99855.91;4880387;29;20492;-63
2023/05/18 03:31:53;;;;;;;0.98;0.93;;;;;;;11.61;77.72;99852.50;4879194;29;20045;-63
2023/05/18 03:34:22;;;;;;;0.50;0.50;;;;;;;11.62;77.77;99851.63;4879231;29;20100;-63
2023/05/18 03:36:53;;;;;;;0.40;0.40;;;;;;;11.68;77.69;99859.34;4879139;29;20072;-63
2023/05/18 03:39:22;;;;;;;1.17;0.93;;;;;;;11.69;77.42;99861.00;4894680;29;20299;-63
2023/05/18 03:41:51;;;;;;;0.40;0.40;;;;;;;11.68;77.08;99864.44;4880211;29;20137;-63
2023/05/18 03:44:20;;;;;;;0.70;0.70;;;;;;;11.71;77.37;99868.69;4894639;29;20117;-63
2023/05/18 03:46:49;;;;;;;1.08;0.95;;;;;;;11.71;77.39;99864.41;4879278;29;20383;-63
2023/05/18 03:49:18;;;;;;;0.60;0.60;;;;;;;11.73;77.33;99865.28;4879204;29;20109;-63
2023/05/18 03:51:47;;;;;;;1.88;1.42;;;;;;;11.75;77.13;99866.13;4894524;29;20492;-63
2023/05/18 03:54:17;;;;;;;0.57;0.57;;;;;;;11.76;77.10;99872.94;4879275;29;20048;-63
2023/05/18 03:56:47;;;;;;;1.02;0.93;;;;;;;11.78;77.17;99872.94;4880590;29;20460;-63
2023/05/18 03:59:15;;;;;;;0.43;0.43;;;;;;;11.76;76.95;99872.94;4879850;29;20072;-62
2023/05/18 04:01:44;;;;;;;0.90;0.73;;;;;;;11.74;77.13;99879.75;4880220;29;20083;-63
2023/05/18 04:04:16;;;;;;;0.50;0.50;;;;;;;11.76;77.13;99877.19;4879707;29;20409;-63
2023/05/18 04:06:48;;;;;;;0.80;0.73;;;;;;;11.78;77.00;99878.06;4879894;29;20064;-63
2023/05/18 04:09:18;;;;;;;0.80;0.80;;;;;;;11.79;77.19;99883.16;4879910;29;20049;-64
2023/05/18 04:11:49;;;;;;;0.95;0.85;;;;;;;11.84;77.13;99886.56;4879927;29;20053;-63
2023/05/18 04:14:19;;;;;;;0.98;0.90;;;;;;;11.83;77.20;99884.84;4879786;29;20124;-63
2023/05/18 04:16:48;;;;;;;0.82;0.70;;;;;;;11.79;77.55;99880.59;4879874;29;20144;-63
2023/05/18 04:19:20;;;;;;;1.10;1.02;;;;;;;11.84;77.65;99891.66;4879532;29;20502;-63
2023/05/18 04:21:49;;;;;;;0.47;0.47;;;;;;;11.82;77.83;99893.38;4879781;29;20113;-62
2023/05/18 04:24:21;;;;;;;0.50;0.50;;;;;;;11.75;78.07;99891.69;4880063;29;20077;-63
2023/05/18 04:26:50;;;;;;;1.45;1.02;;;;;;;11.74;78.21;99899.34;4880020;29;20056;-63
2023/05/18 04:29:20;;;;;;;1.23;1.13;;;;;;;11.74;78.23;99900.22;4894335;29;20045;-63
2023/05/18 04:31:49;;;;;;;1.17;1.10;;;;;;;11.75;78.40;99901.94;4878570;29;20278;-63
2023/05/18 04:34:17;;;;;;;3.30;1.17;;;;;;;11.73;78.11;99903.63;4894080;29;20053;-63
2023/05/18 04:36:48;;;;;;;0.55;0.55;;;;;;;11.75;78.53;99908.75;4879707;29;20303;-63
2023/05/18 04:39:17;;;;;;;0.70;0.60;;;;;;;11.78;78.51;99907.00;4894013;29;20049;-63
2023/05/18 04:41:47;;;;;;;0.60;0.60;;;;;;;11.81;78.34;99907.00;4879495;29;20056;-63
2023/05/18 04:44:17;;;;;;;0.98;0.98;;;;;;;11.83;78.31;99909.59;4879845;29;20049;-63
2023/05/18 04:46:46;;;;;;;0.68;0.68;;;;;;;11.83;78.52;99910.41;4878633;29;20372;-63
2023/05/18 04:49:15;;;;;;;5.03;1.15;;;;;;;11.85;78.63;99918.09;4879601;29;20049;-63
2023/05/18 04:51:45;;;;;;;2.10;1.13;;;;;;;11.84;78.80;99922.34;4896287;29;20049;-63
2023/05/18 04:54:14;;;;;;;0.63;0.63;;;;;;;11.88;78.70;99923.19;4883487;29;20118;-63
2023/05/18 04:56:46;;;;;;;0.60;0.60;;;;;;;11.86;78.61;99928.31;4897494;29;20123;-63
2023/05/18 04:59:16;;;;;;;0.40;0.40;;;;;;;11.76;78.59;99910.44;4883053;29;20110;-63
2023/05/18 05:01:46;;;;;;;0.55;0.55;;;;;;;11.84;78.39;99921.50;4897501;29;20057;-63
2023/05/18 05:04:15;;;;;;;0.40;0.40;;;;;;;11.84;78.47;99924.91;4881699;29;20464;-63
2023/05/18 05:06:44;;;;;;;1.40;0.97;;;;;;;11.88;78.35;99923.19;4883268;29;20043;-62
2023/05/18 05:09:13;;;;;;;0.75;0.68;;;;;;;11.89;78.37;99925.75;4897298;29;20136;-63
2023/05/18 05:11:42;;;;;;;0.55;0.55;;;;;;;11.92;78.51;99930.88;4883086;29;20526;-63
2023/05/18 05:14:12;;;;;;;0.45;0.45;;;;;;;11.98;78.42;99935.97;4881743;29;20041;-63
2023/05/18 05:16:43;;;;;;;0.98;0.90;;;;;;;11.99;78.23;99937.69;4882806;29;20056;-63
2023/05/18 05:19:12;;;;;;;0.50;0.50;;;;;;;12.00;78.45;99931.69;4882766;29;20045;-63
2023/05/18 05:21:41;;;;;;;0.60;0.60;;;;;;;11.95;78.28;99928.28;4897320;29;20041;-63
2023/05/18 05:24:10;;;;;;;1.27;1.17;;;;;;;12.01;78.34;99941.09;4881489;29;20037;-63
2023/05/18 05:26:39;;;;;;;0.38;0.38;;;;;;;12.03;78.59;99941.94;4881545;29;20368;-63
2023/05/18 05:29:08;;;;;;;0.82;0.82;;;;;;;12.04;78.91;99942.78;4881420;29;20140;-62
2023/05/18 05:31:37;;;;;;;1.45;0.75;;;;;;;12.05;78.99;99936.78;4882707;29;20045;-63
2023/05/18 05:34:10;;;;;;;0.73;0.50;;;;;;;12.08;79.27;99942.78;4881289;29;20446;-63
2023/05/18 05:36:40;;;;;;;1.67;1.38;;;;;;;12.12;79.28;99938.47;4896778;29;20574;-63
2023/05/18 05:39:09;;;;;;;0.83;0.83;;;;;;;12.10;79.15;99941.06;4882330;29;20128;-62
2023/05/18 05:41:38;;;;;;;0.85;0.85;;;;;;;12.06;79.12;99928.28;4896753;29;20052;-63
2023/05/18 05:44:08;;;;;;;0.52;0.52;;;;;;;12.10;78.60;99941.06;4882229;29;20060;-63
2023/05/18 05:46:37;;;;;;;0.57;0.57;;;;;;;12.06;78.32;99939.38;4882286;29;20045;-63
2023/05/18 05:49:08;;;;;;;0.60;0.60;;;;;;;12.10;78.16;99943.63;4882407;29;20403;-62
2023/05/18 05:51:37;;;;;;;0.95;0.77;;;;;;;12.04;78.00;99951.28;4881296;29;20563;-63
2023/05/18 05:54:06;;;;;;;0.60;0.60;;;;;;;12.10;78.35;99951.28;4896756;29;20045;-63
2023/05/18 05:56:38;;;;;;;0.45;0.45;;;;;;;12.18;78.46;99948.72;4896925;29;20575;-63
2023/05/18 05:59:07;;;;;;;0.40;0.40;;;;;;;12.13;78.58;99949.56;4880848;29;20068;-63
2023/05/18 06:01:36;;;;;;;1.42;1.33;;;;;;;12.13;78.70;99952.13;4881692;29;20049;-62
2023/05/18 06:04:09;;;;;;;0.60;0.60;;;;;;;12.12;78.83;99947.88;4879613;29;20100;-62
2023/05/18 06:06:42;;;;;;;0.82;0.82;;;;;;;12.13;78.89;99952.13;4881857;29;20424;-65
2023/05/18 06:09:13;;;;;;;0.85;0.85;;;;;;;12.07;78.63;99951.28;4881854;29;20500;-63
2023/05/18 06:11:42;;;;;;;0.68;0.68;;;;;;;12.12;79.04;99953.81;4896473;29;20045;-63
2023/05/18 06:14:11;;;;;;;0.77;0.77;;;;;;;12.13;79.09;99959.81;4882044;29;20500;-63
2023/05/18 06:16:41;;;;;;;0.50;0.50;;;;;;;12.15;79.32;99960.66;4881640;29;20057;-63
2023/05/18 06:19:12;;;;;;;3.22;0.90;;;;;;;12.14;79.35;99956.41;4896373;29;20049;-63
2023/05/18 06:21:43;;;;;;;0.40;0.40;;;;;;;12.19;79.39;99954.69;4895943;29;20474;-62
2023/05/18 06:24:12;;;;;;;1.10;1.00;;;;;;;12.27;79.36;99964.03;4881915;29;20496;-62
2023/05/18 06:26:47;;;;;;;1.05;0.88;;;;;;;12.31;79.42;99962.34;4880334;29;20457;-63
2023/05/18 06:29:36;;;;;;;6.53;1.02;;;;;;;12.42;79.32;99963.13;4881065;29;20093;-63
2023/05/18 06:32:16;;;;;;;1.27;1.17;;;;;;;12.49;79.08;99964.81;4881346;29;20076;-63
2023/05/18 06:34:53;;;;;;;1.23;1.15;;;;;;;12.52;79.00;99970.78;4881702;29;20385;-63
2023/05/18 06:37:23;;;;;;;1.27;1.17;;;;;;;12.54;79.04;99968.22;4895694;29;20041;-63
2023/05/18 06:39:52;;;;;;;1.05;0.98;;;;;;;12.58;78.71;99969.88;4881433;29;20495;-63
2023/05/18 06:42:21;;;;;;;0.83;0.77;;;;;;;12.59;78.78;99981.84;4880028;29;20101;-63
2023/05/18 06:45:02;;;;;;;0.93;0.65;;;;;;;12.56;78.54;99979.28;4881262;29;20279;-63
2023/05/18 06:47:42;;;;;;;0.90;0.73;;;;;;;12.64;78.22;99975.00;4880960;29;20060;-62
2023/05/18 06:50:11;;;;;;;0.70;0.70;;;;;;;12.72;78.02;99978.34;4879898;29;20045;-62
2023/05/18 06:52:41;;;;;;;0.80;0.80;;;;;;;12.79;77.58;99978.31;4895570;29;20381;-62
2023/05/18 06:55:12;;;;;;;1.02;0.80;;;;;;;12.80;77.00;99976.63;4880861;29;20059;-63
2023/05/18 06:57:40;;;;;;;;;;;;;;;12.83;76.71;99981.72;4881590;29;20053;-63
2023/05/18 07:00:11;;;;;;;0.40;0.40;;;;;;;12.87;76.42;99977.44;4879686;29;20413;-63
2023/05/18 07:02:42;;;;;;;0.65;0.65;;;;;;;12.88;75.78;99977.44;4879450;29;20065;-63
2023/05/18 07:05:11;;;;;;;1.20;1.10;;;;;;;12.88;75.43;99980.00;4881921;29;20056;-63
2023/05/18 07:07:41;;;;;;;0.73;0.70;;;;;;;12.92;75.74;99975.69;4862177;29;20519;-63
2023/05/18 07:10:10;;;;;;;0.77;0.77;;;;;;;12.99;75.18;99980.78;4862141;29;20049;-62
2023/05/18 07:12:39;;;;;;;1.13;1.02;;;;;;;13.02;75.36;99982.47;4861075;29;20045;-67
2023/05/18 07:15:10;;;;;;;1.85;0.80;;;;;;;13.05;74.94;99983.28;4861960;29;20046;-63
2023/05/18 07:17:39;;;;;;;0.52;0.52;;;;;;;13.09;74.98;99982.47;4862558;29;20441;-63
2023/05/18 07:20:09;;;;;;;0.40;0.40;;;;;;;13.18;74.55;99976.44;4862200;29;20041;-63
2023/05/18 07:22:38;;;;;;;1.60;1.33;;;;;;;13.18;74.40;99984.97;4862041;29;20488;-63
2023/05/18 07:25:09;;;;;;;2.60;1.57;;;;;;;13.18;74.54;99977.28;4861871;29;20049;-63
2023/05/18 07:27:38;;;;;;;1.92;1.05;;;;;;;13.25;74.90;99984.06;4862182;29;20053;-63
2023/05/18 07:30:08;;;;;;;0.83;0.80;;;;;;;13.24;74.66;99982.38;4861689;29;20057;-63
2023/05/18 07:32:37;;;;;;;4.68;1.48;;;;;;;13.20;74.31;99982.38;4860576;29;20360;-62
2023/05/18 07:35:06;;;;;;;1.05;0.80;;;;;;;13.26;74.53;99983.22;4861595;29;20050;-63
2023/05/18 07:37:35;;;;;;;1.08;1.00;;;;;;;13.34;73.93;99991.69;4861671;29;20041;-62
2023/05/18 07:40:08;;;;;;;1.25;1.10;;;;;;;13.31;73.92;99975.50;4861547;29;20045;-63
2023/05/18 07:42:40;;;;;;;1.42;1.23;;;;;;;13.39;73.67;99984.81;4861765;29;20515;-63
2023/05/18 07:45:10;;;;;;;1.00;1.00;;;;;;;13.27;73.70;99961.84;4861861;29;20403;-63
2023/05/18 07:47:39;;;;;;;1.17;1.08;;;;;;;13.43;73.72;99981.38;4861588;29;20500;-64
2023/05/18 07:50:10;;;;;;;0.53;0.53;;;;;;;13.45;73.95;99989.06;4841857;29;20034;-62
2023/05/18 07:52:41;;;;;;;0.63;0.63;;;;;;;13.46;73.52;99989.91;4840942;29;20320;-63
2023/05/18 07:55:10;;;;;;;0.63;0.63;;;;;;;13.48;73.68;99993.31;4842331;29;20045;-63
2023/05/18 07:57:41;;;;;;;0.75;0.75;;;;;;;13.57;73.11;99982.97;4840048;29;20110;-63
2023/05/18 08:00:11;;;;;;;0.85;0.85;;;;;;;13.62;72.93;99983.81;4842391;29;20057;-63
2023/05/18 08:02:40;;;;;;;0.93;0.82;;;;;;;13.64;72.75;99977.78;4840025;29;20053;-63
2023/05/18 08:05:11;;;;;;;0.77;0.77;;;;;;;13.69;72.72;99988.00;4842401;29;20489;-63
2023/05/18 08:07:39;;;;;;;;;;;;;;;13.70;72.48;99985.44;4840612;29;20046;-63
2023/05/18 08:10:09;;;;;;;1.23;1.13;;;;;;;13.66;72.78;99981.19;4842189;29;19930;-63
2023/05/18 08:12:40;;;;;;;0.60;0.60;;;;;;;13.86;73.00;99991.28;4841222;29;20149;-63
2023/05/18 08:15:10;;;;;;;0.60;0.60;;;;;;;13.96;72.71;99993.75;4842174;29;20056;-62
2023/05/18 08:17:39;;;;;;;0.98;0.95;;;;;;;14.00;72.31;99998.00;4842038;29;20046;-62
2023/05/18 08:20:09;;;;;;;;;;;;;;;14.10;72.03;99998.75;4842619;29;20102;-63
2023/05/18 08:22:37;;;;;;;;;;;;;;;14.16;71.56;100003.81;4842366;29;19924;-63
2023/05/18 08:25:08;;;;;;;0.40;0.40;;;;;;;14.20;71.51;100002.09;4842134;29;19925;-64
2023/05/18 08:27:38;;;;;;;0.52;0.52;;;;;;;14.23;71.25;100002.88;4844559;29;20408;-63
2023/05/18 08:30:10;;;;;;;1.05;0.95;;;;;;;14.29;70.85;99997.69;4846491;29;20046;-63
2023/05/18 08:32:39;;;;;;;0.35;0.35;;;;;;;14.31;70.73;100006.25;4846437;29;20057;-62
2023/05/18 08:35:09;;;;;;;0.50;0.50;;;;;;;14.27;70.81;99999.44;4846734;29;20058;-63
2023/05/18 08:37:38;;;;;;;0.85;0.68;;;;;;;14.37;70.04;100010.50;4845505;29;20446;-63
2023/05/18 08:40:10;;;;;;;0.82;0.82;;;;;;;14.36;69.94;100009.63;4846637;29;20054;-62
2023/05/18 08:42:47;;;;;;;0.50;0.50;;;;;;;14.41;69.81;100017.28;4846355;29;20088;-63
2023/05/18 08:45:32;;;;;;;0.50;0.50;;;;;;;14.48;69.24;100014.66;4845393;29;20141;-63
2023/05/18 08:48:03;;;;;;;1.15;0.73;;;;;;;14.53;69.29;100012.88;4845311;29;20504;-63
2023/05/18 08:50:33;;;;;;;0.75;0.75;;;;;;;14.59;69.34;100015.34;4846517;29;20603;-63
2023/05/18 08:53:05;;;;;;;0.80;0.80;;;;;;;14.61;69.48;100017.94;4846355;29;20046;-62
2023/05/18 08:55:35;;;;;;;0.65;0.57;;;;;;;14.54;68.56;100019.69;4846428;29;20102;-62
2023/05/18 08:58:07;;;;;;;0.40;0.40;;;;;;;14.48;68.69;100021.50;4845306;29;20123;-62
2023/05/18 09:00:38;;;;;;;0.32;0.32;;;;;;;14.42;68.93;100014.69;4846364;29;20050;-62
2023/05/18 09:03:08;;;;;;;0.50;0.50;;;;;;;14.43;68.66;100010.41;4845612;29;20114;-63
2023/05/18 09:05:38;;;;;;;0.60;0.60;;;;;;;14.39;68.47;100019.88;4845898;29;20068;-62
2023/05/18 09:08:09;;;;;;;0.40;0.40;;;;;;;14.39;68.24;100014.75;4845935;29;20530;-62
2023/05/18 09:10:40;;;;;;;1.58;1.48;;;;;;;14.42;68.44;100022.41;4845839;29;20050;-61
2023/05/18 09:13:09;;;;;;;0.50;0.50;;;;;;;14.44;68.41;100018.13;4846317;29;20515;-62
2023/05/18 09:15:40;;;;;;;0.57;0.57;;;;;;;14.46;68.63;100024.09;4845973;29;20046;-62
2023/05/18 09:18:10;;;;;;;0.90;0.75;;;;;;;14.47;68.51;100023.19;4845974;29;20061;-63
2023/05/18 09:20:39;;;;;;;0.40;0.40;;;;;;;14.49;68.52;100021.47;4846202;29;20062;-63
2023/05/18 09:23:10;;;;;;;0.50;0.50;;;;;;;14.55;69.24;100021.41;4845469;29;20050;-63
2023/05/18 09:25:44;;;;;;;0.50;0.50;;;;;;;14.55;68.70;100018.84;4845839;29;20050;-62
2023/05/18 09:28:14;;;;;;;0.45;0.45;;;;;;;14.53;69.03;100025.72;4845471;29;20082;-62
2023/05/18 09:30:46;;;;;;;0.50;0.50;;;;;;;14.52;68.57;100026.56;4845653;29;20110;-62
2023/05/18 09:33:18;;;;;;;0.40;0.40;;;;;;;14.49;68.67;100024.03;4845420;29;20050;-63
2023/05/18 09:35:47;;;;;;;0.50;0.50;;;;;;;14.49;68.31;100025.78;4844842;29;20516;-63
2023/05/18 09:38:20;;;;;;;0.63;0.63;;;;;;;14.52;68.53;100021.44;4845066;29;20060;-63
2023/05/18 09:40:50;;;;;;;0.50;0.50;;;;;;;14.53;68.59;100023.16;4845253;29;20292;-63
2023/05/18 09:43:19;;;;;;;1.10;1.00;;;;;;;14.58;68.54;100026.53;4845170;29;20072;-62
2023/05/18 09:45:50;;;;;;;;;;;;;;;14.60;68.50;100029.91;4845930;29;20057;-62
2023/05/18 09:48:18;;;;;;;0.40;0.40;;;;;;;14.60;68.35;100029.06;4845163;29;19925;-62
2023/05/18 09:50:50;;;;;;;0.70;0.70;;;;;;;14.56;67.46;100035.97;4845190;29;20085;-63
2023/05/18 09:53:18;;;;;;;3.35;0.70;;;;;;;14.54;67.54;100035.09;4844951;29;20061;-62
2023/05/18 09:55:49;;;;;;;23.25;1.08;;;;;;;14.56;67.98;100037.69;4845563;29;20099;-62
2023/05/18 09:58:18;;;;;;;0.73;0.70;;;;;;;14.53;68.17;100028.28;4845346;29;20053;-63
2023/05/18 10:00:55;;;;;;;0.40;0.40;;;;;;;14.57;68.16;100045.34;4845485;29;20061;-63
2023/05/18 10:03:25;;;;;;;0.85;0.57;;;;;;;14.55;68.27;100034.25;4844722;29;20061;-62
2023/05/18 10:05:54;;;;;;;0.38;0.38;;;;;;;14.57;68.02;100041.94;4845106;29;20058;-63
2023/05/18 10:08:23;;;;;;;0.55;0.55;;;;;;;14.58;67.63;100031.66;4845091;29;20094;-63
2023/05/18 10:10:51;;;;;;;0.70;0.70;;;;;;;14.64;67.78;100036.72;4845066;29;20042;-63
2023/05/18 10:13:20;;;;;;;0.60;0.60;;;;;;;14.68;67.74;100040.09;4844974;29;20038;-62
2023/05/18 10:15:53;;;;;;;0.80;0.63;;;;;;;14.69;67.57;100037.50;4844577;29;20053;-62
2023/05/18 10:18:24;;;;;;;1.70;1.23;;;;;;;14.75;67.56;100039.16;4844636;29;20291;-62
2023/05/18 10:20:55;;;;;;;0.40;0.40;;;;;;;14.75;67.30;100034.88;4844693;29;20584;-62
2023/05/18 10:23:34;;;;;;;0.50;0.50;;;;;;;14.76;67.49;100031.44;4844538;29;20408;-63
2023/05/18 10:26:06;;;;;;;0.38;0.38;;;;;;;14.75;67.16;100032.31;4844830;29;20122;-62
2023/05/18 10:28:41;;;;;;;0.47;0.47;;;;;;;14.72;67.30;100039.19;4844781;29;20065;-62
2023/05/18 10:31:12;;;;;;;0.45;0.45;;;;;;;14.69;67.43;100037.50;4844737;29;20049;-62
2023/05/18 10:33:44;;;;;;;0.50;0.50;;;;;;;14.66;67.79;100045.25;4844729;29;20136;-62
2023/05/18 10:36:13;;;;;;;0.40;0.40;;;;;;;14.66;67.25;100040.09;4844354;29;20174;-62
2023/05/18 10:38:45;;;;;;;0.47;0.47;;;;;;;14.72;67.60;100042.63;4844593;29;20042;-63
2023/05/18 10:41:15;;;;;;;0.65;0.65;;;;;;;14.76;67.46;100046.00;4844535;29;20058;-62
2023/05/18 10:43:46;;;;;;;0.70;0.70;;;;;;;14.71;67.51;100051.19;4844470;29;20046;-63
2023/05/18 10:46:20;;;;;;;0.40;0.40;;;;;;;14.75;67.73;100045.16;4844482;29;20053;-63
2023/05/18 10:48:51;;;;;;;0.40;0.32;;;;;;;14.72;67.85;100045.19;4843427;29;20572;-63
2023/05/18 10:51:21;;;;;;;0.50;0.50;;;;;;;14.75;67.50;100052.88;4844955;29;20060;-63
2023/05/18 10:53:50;;;;;;;;;;;;;;;14.73;67.32;100052.00;4844442;29;20053;-63
2023/05/18 10:56:21;;;;;;;0.30;0.30;;;;;;;14.75;67.31;100050.31;4844045;29;19981;-62
2023/05/18 10:58:50;;;;;;;0.60;0.60;;;;;;;14.81;67.22;100048.50;4844068;29;20056;-63
2023/05/18 11:01:20;;;;;;;0.67;0.57;;;;;;;14.85;67.13;100047.63;4844363;29;20089;-63
2023/05/18 11:03:49;;;;;;;0.75;0.73;;;;;;;14.82;67.00;100055.34;4843748;29;20046;-63
2023/05/18 11:06:24;;;;;;;0.40;0.40;;;;;;;14.76;67.10;100049.41;4843904;29;20049;-62
2023/05/18 11:08:54;;;;;;;0.50;0.50;;;;;;;14.71;66.42;100040.06;4843982;29;20050;-62
2023/05/18 11:11:25;;;;;;;0.40;0.40;;;;;;;14.76;66.37;100049.41;4843965;29;20046;-62
2023/05/18 11:13:54;;;;;;;0.35;0.35;;;;;;;14.77;66.38;100048.56;4844126;29;20094;-62
2023/05/18 11:16:33;;;;;;;0.98;0.75;;;;;;;14.77;66.81;100053.69;4843663;29;20046;-62
2023/05/18 11:19:07;;;;;;;1.02;0.93;;;;;;;14.79;66.83;100048.53;4843642;29;20089;-62
2023/05/18 11:21:51;;;;;;;0.30;0.30;;;;;;;14.85;66.88;100056.19;4844009;29;20110;-63
2023/05/18 11:24:24;;;;;;;0.43;0.43;;;;;;;14.81;66.99;100058.78;4843763;29;20442;-62
2023/05/18 11:26:55;;;;;;;0.30;0.30;;;;;;;14.68;66.84;100058.91;4843839;29;20129;-62
2023/05/18 11:29:31;;;;;;;0.43;0.40;;;;;;;14.70;66.84;100052.06;4848350;29;20516;-62
2023/05/18 11:32:01;;;;;;;0.57;0.57;;;;;;;14.70;66.80;100062.34;4843802;29;20053;-62
2023/05/18 11:34:51;;;;;;;0.50;0.50;;;;;;;14.74;66.75;100068.28;4843509;29;20075;-62
2023/05/18 11:37:45;;;;;;;0.38;0.38;;;;;;;14.81;67.14;100069.06;4843561;29;20077;-62
2023/05/18 11:40:45;;;;;;;0.30;0.30;;;;;;;14.82;66.97;100060.50;4843312;29;20062;-62
2023/05/18 11:43:21;;;;;;;0.30;0.30;;;;;;;14.87;67.35;100062.16;4843527;29;20046;-62
2023/05/18 11:45:55;;;;;;;0.30;0.30;;;;;;;14.93;67.05;100063.78;4843573;29;20108;-63
2023/05/18 11:48:29;;;;;;;0.30;0.30;;;;;;;14.92;66.90;100064.66;4843865;29;20392;-63
2023/05/18 11:50:58;;;;;;;0.38;0.38;;;;;;;14.92;66.89;100062.09;4843351;29;20058;-63